createdAt,value
2019-05-18T00:00:31.009Z,10.90
2019-05-18T00:03:01.905Z,10.90
2019-05-18T00:05:32.176Z,10.86
2019-05-18T00:08:02.461Z,10.81
2019-05-18T00:10:33.526Z,10.86
2019-05-18T00:13:03.843Z,10.93
2019-05-18T00:15:34.159Z,10.86
2019-05-18T00:18:04.545Z,10.78
2019-05-18T00:20:34.889Z,10.75
2019-05-18T00:23:05.184Z,10.88
2019-05-18T00:25:35.935Z,10.87
2019-05-18T00:28:06.227Z,10.89
2019-05-18T00:30:36.530Z,11.02
2019-05-18T00:33:07.145Z,11.15
2019-05-18T00:35:37.554Z,11.46
2019-05-18T00:38:08.196Z,11.63
2019-05-18T00:40:38.643Z,11.89
2019-05-18T00:43:08.977Z,11.93
2019-05-18T00:45:39.325Z,12.13
2019-05-18T00:48:10.510Z,12.13
2019-05-18T00:50:42.504Z,12.18
2019-05-18T00:53:12.852Z,12.10
2019-05-18T00:55:43.150Z,12.23
2019-05-18T00:58:13.806Z,12.21
2019-05-18T01:00:44.164Z,12.19
2019-05-18T01:03:14.620Z,12.18
2019-05-18T01:05:46.363Z,12.17
2019-05-18T01:08:17.325Z,12.17
2019-05-18T01:10:48.546Z,12.14
2019-05-18T01:13:19.187Z,12.17
2019-05-18T01:15:49.511Z,12.10
2019-05-18T01:18:19.621Z,12.01
2019-05-18T01:20:52.335Z,11.93
2019-05-18T01:23:22.669Z,11.86
2019-05-18T01:25:53.413Z,11.72
2019-05-18T01:28:24.576Z,11.70
2019-05-18T01:30:54.857Z,11.81
2019-05-18T01:33:25.171Z,11.74
2019-05-18T01:35:55.895Z,11.71
2019-05-18T01:38:26.250Z,11.70
2019-05-18T01:40:56.850Z,11.78
2019-05-18T01:43:27.431Z,11.91
2019-05-18T01:45:57.741Z,11.75
2019-05-18T01:48:29.470Z,11.71
2019-05-18T01:51:01.376Z,11.64
2019-05-18T01:53:33.773Z,11.55
2019-05-18T01:56:04.086Z,11.53
2019-05-18T01:58:34.347Z,11.55
2019-05-18T02:01:04.625Z,11.49
2019-05-18T02:03:35.285Z,11.45
2019-05-18T02:06:05.689Z,11.37
2019-05-18T02:08:40.457Z,11.35
2019-05-18T02:11:11.132Z,11.21
2019-05-18T02:13:41.391Z,11.02
2019-05-18T02:16:13.393Z,10.85
2019-05-18T02:18:43.748Z,10.97
2019-05-18T02:21:14.417Z,10.79
2019-05-18T02:23:45.211Z,10.55
2019-05-18T02:26:15.521Z,10.39
2019-05-18T02:28:46.211Z,10.22
2019-05-18T02:31:16.581Z,10.14
2019-05-18T02:33:49.197Z,9.95
2019-05-18T02:36:19.518Z,10.05
2019-05-18T02:38:50.110Z,9.96
2019-05-18T02:41:23.780Z,9.91
2019-05-18T02:43:56.587Z,9.88
2019-05-18T02:46:31.222Z,9.90
2019-05-18T02:49:01.521Z,9.98
2019-05-18T02:51:31.626Z,10.19
2019-05-18T02:54:03.174Z,10.28
2019-05-18T02:56:35.801Z,10.37
2019-05-18T02:59:07.892Z,10.49
2019-05-18T03:01:38.439Z,10.62
2019-05-18T03:04:08.970Z,10.68
2019-05-18T03:06:39.235Z,10.79
2019-05-18T03:09:12.090Z,10.78
2019-05-18T03:11:42.468Z,10.86
2019-05-18T03:14:13.440Z,10.93
2019-05-18T03:16:44.170Z,11.09
2019-05-18T03:19:15.686Z,11.26
2019-05-18T03:21:46.427Z,11.42
2019-05-18T03:24:22.426Z,11.56
2019-05-18T03:26:52.766Z,11.62
2019-05-18T03:29:23.462Z,11.68
2019-05-18T03:31:53.783Z,11.83
2019-05-18T03:34:24.043Z,11.76
2019-05-18T03:36:54.529Z,11.86
2019-05-18T03:39:25.474Z,11.78
2019-05-18T03:41:55.705Z,11.56
2019-05-18T03:44:25.971Z,11.33
2019-05-18T03:46:56.458Z,11.27
2019-05-18T03:49:27.817Z,11.25
2019-05-18T03:51:58.300Z,11.27
2019-05-18T03:54:28.632Z,11.44
2019-05-18T03:56:58.975Z,11.58
2019-05-18T03:59:30.699Z,11.77
2019-05-18T04:02:01.092Z,12.06
2019-05-18T04:04:33.020Z,12.25
2019-05-18T04:07:03.337Z,12.50
2019-05-18T04:09:33.656Z,12.62
2019-05-18T04:12:03.906Z,12.81
2019-05-18T04:14:34.391Z,12.98
2019-05-18T04:17:04.759Z,13.23
2019-05-18T04:19:45.510Z,13.25
2019-05-18T04:22:07.054Z,13.27
2019-05-18T04:24:37.389Z,13.22
2019-05-18T04:27:09.606Z,13.27
2019-05-18T04:29:39.899Z,13.27
2019-05-18T04:32:11.304Z,13.34
2019-05-18T04:34:41.576Z,13.36
2019-05-18T04:37:12.231Z,13.59
2019-05-18T04:39:42.837Z,13.74
2019-05-18T04:42:13.546Z,13.83
2019-05-18T04:44:43.927Z,13.86
2019-05-18T04:47:14.575Z,14.02
2019-05-18T04:50:04.439Z,14.05
2019-05-18T04:52:24.457Z,14.11
2019-05-18T04:54:55.083Z,14.28
2019-05-18T04:57:25.858Z,14.25
2019-05-18T04:59:56.559Z,14.33
2019-05-18T05:02:26.887Z,14.30
2019-05-18T05:04:57.182Z,14.32
2019-05-18T05:07:27.524Z,14.27
2019-05-18T05:09:59.025Z,14.43
2019-05-18T05:12:29.638Z,14.59
2019-05-18T05:15:00.915Z,14.65
2019-05-18T05:17:31.234Z,14.80
2019-05-18T05:20:01.534Z,14.71
2019-05-18T05:22:32.043Z,14.89
2019-05-18T05:25:03.159Z,14.93
2019-05-18T05:27:33.463Z,15.00
2019-05-18T05:30:04.190Z,14.87
2019-05-18T05:32:35.360Z,14.98
2019-05-18T05:35:10.659Z,15.07
2019-05-18T05:37:40.998Z,15.09
2019-05-18T05:40:12.205Z,15.04
2019-05-18T05:42:43.839Z,15.12
2019-05-18T05:45:16.245Z,15.36
2019-05-18T05:47:46.700Z,15.34
2019-05-18T05:50:34.140Z,15.34
2019-05-18T05:52:51.638Z,15.35
2019-05-18T05:55:24.269Z,15.42
2019-05-18T05:57:55.146Z,15.46
2019-05-18T06:00:25.457Z,15.50
2019-05-18T06:02:55.810Z,15.73
2019-05-18T06:05:26.216Z,15.78
2019-05-18T06:07:56.518Z,16.00
2019-05-18T06:10:26.862Z,16.22
2019-05-18T06:12:57.486Z,16.22
2019-05-18T06:15:28.229Z,16.26
2019-05-18T06:17:59.665Z,16.29
2019-05-18T06:20:30.337Z,16.38
2019-05-18T06:23:00.682Z,16.12
2019-05-18T06:25:34.229Z,15.96
2019-05-18T06:28:03.043Z,15.93
2019-05-18T06:30:33.378Z,15.87
2019-05-18T06:33:04.072Z,15.87
2019-05-18T06:35:35.126Z,15.74
2019-05-18T06:38:05.572Z,15.46
2019-05-18T06:40:35.954Z,15.58
2019-05-18T06:43:06.683Z,15.54
2019-05-18T06:45:37.070Z,15.64
2019-05-18T06:48:09.291Z,15.66
2019-05-18T06:50:39.589Z,15.85
2019-05-18T06:53:09.742Z,15.82
2019-05-18T06:55:42.064Z,15.76
2019-05-18T06:58:12.569Z,15.82
2019-05-18T07:00:42.915Z,15.58
2019-05-18T07:03:13.226Z,15.61
2019-05-18T07:05:45.540Z,15.69
2019-05-18T07:08:16.438Z,15.65
2019-05-18T07:10:46.760Z,15.31
2019-05-18T07:13:19.158Z,15.19
2019-05-18T07:15:49.496Z,15.14
2019-05-18T07:18:23.597Z,14.93
2019-05-18T07:20:57.476Z,15.04
2019-05-18T07:23:27.765Z,15.09
2019-05-18T07:25:58.069Z,15.16
2019-05-18T07:28:28.717Z,15.14
2019-05-18T07:30:58.984Z,15.35
2019-05-18T07:33:31.551Z,15.33
2019-05-18T07:36:01.920Z,15.60
2019-05-18T07:38:32.865Z,15.53
2019-05-18T07:41:03.205Z,15.48
2019-05-18T07:43:36.221Z,15.38
2019-05-18T07:46:08.752Z,15.63
2019-05-18T07:48:38.577Z,15.52
2019-05-18T07:51:09.022Z,15.61
2019-05-18T07:53:39.428Z,15.74
2019-05-18T07:56:10.109Z,16.01
2019-05-18T07:58:43.673Z,15.97
2019-05-18T08:01:13.994Z,16.22
2019-05-18T08:03:44.355Z,16.12
2019-05-18T08:06:15.077Z,16.63
2019-05-18T08:08:45.893Z,17.22
2019-05-18T08:11:18.023Z,17.62
2019-05-18T08:13:48.414Z,17.94
2019-05-18T08:16:25.804Z,18.03
2019-05-18T08:18:58.197Z,17.96
2019-05-18T08:21:29.034Z,18.33
2019-05-18T08:23:59.375Z,18.58
2019-05-18T08:26:29.976Z,18.95
2019-05-18T08:29:01.646Z,19.49
2019-05-18T08:31:32.154Z,21.29
2019-05-18T08:34:03.661Z,21.92
2019-05-18T08:36:36.597Z,23.18
2019-05-18T08:39:10.093Z,23.85
2019-05-18T08:41:41.482Z,23.89
2019-05-18T08:44:11.856Z,24.21
2019-05-18T08:46:42.283Z,24.06
2019-05-18T08:49:12.831Z,23.68
2019-05-18T08:51:43.205Z,23.61
2019-05-18T08:54:13.472Z,22.02
2019-05-18T08:56:44.351Z,20.94
2019-05-18T08:59:14.784Z,19.60
2019-05-18T09:01:45.081Z,19.00
2019-05-18T09:04:16.809Z,19.24
2019-05-18T09:06:47.763Z,19.21
2019-05-18T09:09:18.091Z,19.24
2019-05-18T09:11:51.365Z,19.14
2019-05-18T09:14:23.776Z,18.55
2019-05-18T09:16:54.079Z,18.59
2019-05-18T09:19:24.738Z,18.36
2019-05-18T09:21:55.173Z,18.68
2019-05-18T09:24:25.691Z,19.26
2019-05-18T09:26:56.099Z,20.39
2019-05-18T09:29:28.081Z,21.21
2019-05-18T09:31:58.404Z,21.57
2019-05-18T09:34:29.128Z,20.79
2019-05-18T09:37:02.635Z,20.86
2019-05-18T09:39:33.336Z,21.08
2019-05-18T09:42:06.698Z,21.31
2019-05-18T09:44:37.534Z,22.15
2019-05-18T09:47:07.873Z,23.22
2019-05-18T09:49:38.537Z,24.56
2019-05-18T09:52:13.988Z,25.13
2019-05-18T09:54:46.665Z,25.97
2019-05-18T09:57:21.910Z,25.10
2019-05-18T09:59:52.212Z,23.89
2019-05-18T10:02:24.996Z,24.57
2019-05-18T10:04:55.435Z,24.01
2019-05-18T10:07:26.822Z,23.37
2019-05-18T10:09:58.525Z,22.86
2019-05-18T10:12:30.208Z,23.18
2019-05-18T10:15:00.553Z,22.86
2019-05-18T10:17:31.309Z,23.49
2019-05-18T10:20:01.613Z,24.51
2019-05-18T10:22:55.514Z,25.48
2019-05-18T10:25:18.685Z,25.34
2019-05-18T10:27:49.100Z,25.51
2019-05-18T10:30:20.348Z,25.44
2019-05-18T10:32:53.064Z,26.48
2019-05-18T10:35:23.979Z,27.46
2019-05-18T10:37:56.210Z,27.37
2019-05-18T10:40:26.564Z,27.70
2019-05-18T10:42:57.086Z,28.19
2019-05-18T10:45:27.388Z,28.30
2019-05-18T10:48:00.186Z,27.11
2019-05-18T10:50:31.834Z,27.73
2019-05-18T10:53:02.218Z,28.94
2019-05-18T10:55:32.533Z,28.92
2019-05-18T10:58:04.016Z,28.14
2019-05-18T11:00:34.603Z,26.70
2019-05-18T11:03:05.057Z,27.29
2019-05-18T11:05:35.399Z,27.75
2019-05-18T11:08:05.702Z,27.88
2019-05-18T11:10:36.795Z,26.77
2019-05-18T11:13:07.145Z,27.36
2019-05-18T11:15:37.290Z,28.22
2019-05-18T11:18:07.660Z,28.53
2019-05-18T11:20:38.822Z,27.59
2019-05-18T11:23:09.214Z,25.31
2019-05-18T11:25:42.611Z,23.98
2019-05-18T11:28:14.701Z,23.44
2019-05-18T11:30:45.627Z,23.39
2019-05-18T11:33:15.932Z,24.38
2019-05-18T11:35:46.279Z,25.61
2019-05-18T11:38:16.930Z,25.52
2019-05-18T11:40:49.085Z,25.97
2019-05-18T11:43:19.366Z,26.81
2019-05-18T11:45:50.057Z,26.38
2019-05-18T11:48:20.374Z,25.52
2019-05-18T11:50:50.740Z,25.34
2019-05-18T11:53:21.228Z,25.39
2019-05-18T11:55:53.348Z,25.68
2019-05-18T11:58:25.682Z,25.40
2019-05-18T12:00:56.039Z,24.82
2019-05-18T12:03:26.320Z,24.84
2019-05-18T12:05:56.716Z,24.16
2019-05-18T12:08:27.030Z,24.08
2019-05-18T12:10:58.014Z,23.11
2019-05-18T12:13:30.559Z,23.17
2019-05-18T12:16:00.839Z,23.65
2019-05-18T12:18:31.647Z,23.64
2019-05-18T12:21:04.257Z,23.36
2019-05-18T12:23:34.899Z,23.20
2019-05-18T12:26:06.364Z,22.88
2019-05-18T12:28:36.684Z,22.98
2019-05-18T12:31:07.099Z,22.93
2019-05-18T12:33:40.589Z,23.36
2019-05-18T12:36:10.934Z,23.45
2019-05-18T12:38:41.812Z,24.07
2019-05-18T12:41:12.096Z,24.32
2019-05-18T12:43:44.677Z,24.66
2019-05-18T12:46:15.454Z,24.60
2019-05-18T12:48:45.821Z,24.40
2019-05-18T12:51:21.478Z,24.08
2019-05-18T12:53:51.728Z,24.00
2019-05-18T12:56:22.368Z,24.01
2019-05-18T12:58:56.358Z,23.72
2019-05-18T13:01:26.680Z,24.41
2019-05-18T13:03:59.945Z,25.21
2019-05-18T13:06:30.271Z,25.01
2019-05-18T13:09:00.747Z,24.32
2019-05-18T13:11:32.643Z,24.40
2019-05-18T13:14:03.855Z,24.65
2019-05-18T13:16:35.011Z,24.69
2019-05-18T13:19:06.631Z,23.78
2019-05-18T13:21:37.014Z,24.45
2019-05-18T13:24:08.290Z,24.94
2019-05-18T13:26:41.822Z,26.04
2019-05-18T13:29:13.540Z,26.12
2019-05-18T13:31:43.956Z,25.52
2019-05-18T13:34:14.600Z,25.60
2019-05-18T13:36:44.957Z,24.21
2019-05-18T13:39:15.257Z,23.86
2019-05-18T13:41:47.058Z,23.22
2019-05-18T13:44:17.921Z,24.30
2019-05-18T13:46:48.468Z,23.61
2019-05-18T13:49:24.728Z,23.10
2019-05-18T13:51:55.256Z,22.31
2019-05-18T13:54:25.845Z,22.06
2019-05-18T13:56:56.503Z,22.63
2019-05-18T13:59:27.250Z,22.84
2019-05-18T14:01:57.855Z,22.63
2019-05-18T14:04:32.201Z,22.61
2019-05-18T14:07:03.666Z,22.83
2019-05-18T14:09:35.167Z,22.44
2019-05-18T14:12:09.162Z,21.74
2019-05-18T14:14:39.546Z,21.65
2019-05-18T14:17:09.846Z,22.07
2019-05-18T14:19:40.230Z,22.65
2019-05-18T14:22:11.376Z,22.92
2019-05-18T14:24:43.281Z,22.91
2019-05-18T14:27:14.398Z,23.49
2019-05-18T14:29:44.734Z,22.37
2019-05-18T14:32:18.628Z,23.54
2019-05-18T14:34:48.951Z,23.25
2019-05-18T14:37:22.166Z,21.96
2019-05-18T14:39:54.552Z,21.67
2019-05-18T14:42:25.080Z,21.55
2019-05-18T14:44:55.842Z,21.60
2019-05-18T14:47:28.106Z,21.75
2019-05-18T14:49:59.170Z,22.37
2019-05-18T14:52:29.514Z,23.05
2019-05-18T14:54:59.840Z,23.76
2019-05-18T14:57:31.069Z,24.14
2019-05-18T15:00:02.523Z,23.81
2019-05-18T15:02:33.096Z,22.85
2019-05-18T15:05:03.372Z,21.84
2019-05-18T15:07:34.045Z,21.16
2019-05-18T15:10:05.785Z,20.86
2019-05-18T15:12:39.233Z,20.83
2019-05-18T15:15:11.012Z,20.29
2019-05-18T15:17:50.908Z,20.10
2019-05-18T15:20:22.959Z,19.66
2019-05-18T15:22:54.855Z,19.52
2019-05-18T15:25:25.209Z,19.30
2019-05-18T15:27:57.081Z,19.18
2019-05-18T15:30:27.506Z,19.09
2019-05-18T15:32:58.420Z,18.98
2019-05-18T15:35:28.762Z,18.90
2019-05-18T15:37:59.230Z,19.12
2019-05-18T15:40:29.961Z,19.40
2019-05-18T15:43:02.577Z,19.46
2019-05-18T15:45:33.250Z,19.37
2019-05-18T15:48:03.573Z,19.39
2019-05-18T15:50:33.888Z,19.89
2019-05-18T15:53:04.240Z,19.93
2019-05-18T15:55:35.527Z,20.11
2019-05-18T15:58:06.266Z,19.94
2019-05-18T16:00:36.969Z,19.50
2019-05-18T16:03:09.642Z,19.06
2019-05-18T16:05:42.279Z,18.88
2019-05-18T16:08:13.275Z,18.87
2019-05-18T16:10:43.450Z,19.12
2019-05-18T16:13:15.318Z,19.56
2019-05-18T16:15:47.265Z,19.49
2019-05-18T16:18:17.705Z,19.46
2019-05-18T16:20:49.366Z,18.88
2019-05-18T16:23:19.788Z,18.81
2019-05-18T16:25:50.363Z,18.88
2019-05-18T16:28:21.306Z,18.90
2019-05-18T16:30:53.254Z,18.76
2019-05-18T16:33:23.569Z,18.70
2019-05-18T16:35:56.947Z,18.68
2019-05-18T16:38:27.284Z,18.54
2019-05-18T16:40:59.610Z,18.45
2019-05-18T16:43:31.467Z,18.14
2019-05-18T16:46:02.837Z,17.81
2019-05-18T16:48:33.228Z,17.53
2019-05-18T16:51:04.280Z,17.51
2019-05-18T16:53:37.617Z,17.40
2019-05-18T16:56:07.885Z,17.09
2019-05-18T16:58:41.644Z,16.80
2019-05-18T17:01:11.933Z,16.62
2019-05-18T17:03:42.620Z,16.77
2019-05-18T17:06:16.174Z,16.75
2019-05-18T17:08:46.731Z,16.34
2019-05-18T17:11:17.618Z,15.98
2019-05-18T17:13:48.038Z,15.94
2019-05-18T17:16:21.582Z,15.84
2019-05-18T17:18:52.195Z,15.87
2019-05-18T17:21:22.606Z,15.97
2019-05-18T17:23:57.421Z,15.87
2019-05-18T17:26:27.899Z,15.73
2019-05-18T17:28:59.862Z,15.84
2019-05-18T17:31:31.665Z,15.95
2019-05-18T17:34:02.036Z,15.90
2019-05-18T17:36:37.982Z,15.82
2019-05-18T17:39:08.411Z,15.76
2019-05-18T17:41:40.042Z,15.82
2019-05-18T17:44:10.641Z,15.72
2019-05-18T17:46:42.668Z,15.83
2019-05-18T17:49:25.885Z,15.77
2019-05-18T17:51:47.551Z,15.82
2019-05-18T17:54:18.130Z,15.75
2019-05-18T17:56:48.403Z,15.44
2019-05-18T17:59:18.728Z,15.42
2019-05-18T18:01:49.827Z,15.46
2019-05-18T18:04:20.286Z,15.62
2019-05-18T18:06:50.637Z,15.62
2019-05-18T18:09:21.055Z,15.66
2019-05-18T18:11:51.366Z,15.66
2019-05-18T18:14:22.284Z,15.56
2019-05-18T18:16:52.661Z,15.35
2019-05-18T18:19:25.582Z,15.42
2019-05-18T18:21:58.054Z,15.33
2019-05-18T18:24:29.786Z,15.34
2019-05-18T18:27:00.197Z,15.26
2019-05-18T18:29:30.526Z,15.28
2019-05-18T18:32:11.076Z,15.07
2019-05-18T18:34:45.166Z,14.99
2019-05-18T18:37:17.486Z,14.99
2019-05-18T18:39:48.460Z,14.91
2019-05-18T18:42:18.874Z,14.85
2019-05-18T18:44:50.581Z,14.96
2019-05-18T18:47:24.208Z,14.76
2019-05-18T18:49:54.327Z,14.73
2019-05-18T18:52:26.489Z,14.75
2019-05-18T18:54:57.199Z,14.65
2019-05-18T18:57:40.767Z,14.61
2019-05-18T19:00:03.881Z,14.63
2019-05-18T19:02:36.956Z,14.60
2019-05-18T19:05:07.968Z,14.49
2019-05-18T19:07:38.308Z,14.51
2019-05-18T19:10:10.757Z,14.40
2019-05-18T19:12:41.906Z,14.33
2019-05-18T19:15:13.716Z,14.26
2019-05-18T19:17:44.322Z,14.23
2019-05-18T19:20:15.503Z,14.09
2019-05-18T19:22:45.795Z,14.18
2019-05-18T19:25:16.555Z,14.08
2019-05-18T19:27:55.004Z,14.09
2019-05-18T19:30:22.296Z,14.07
2019-05-18T19:32:53.472Z,14.02
2019-05-18T19:35:24.258Z,13.91
2019-05-18T19:37:54.598Z,13.91
2019-05-18T19:40:24.912Z,13.85
2019-05-18T19:42:55.209Z,13.84
2019-05-18T19:45:25.784Z,13.79
2019-05-18T19:47:56.194Z,13.74
2019-05-18T19:50:31.676Z,13.73
2019-05-18T19:53:02.086Z,13.74
2019-05-18T19:55:33.531Z,13.74
2019-05-18T19:58:09.017Z,13.71
2019-05-18T20:00:36.006Z,13.72
2019-05-18T20:03:06.496Z,13.68
2019-05-18T20:05:39.121Z,13.64
2019-05-18T20:08:11.108Z,13.57
2019-05-18T20:10:41.475Z,13.59
2019-05-18T20:13:11.751Z,13.57
2019-05-18T20:15:42.218Z,13.59
2019-05-18T20:18:12.545Z,13.50
2019-05-18T20:20:42.845Z,13.47
2019-05-18T20:23:13.285Z,13.42
2019-05-18T20:25:43.888Z,13.40
2019-05-18T20:28:23.518Z,13.46
2019-05-18T20:30:46.441Z,13.53
2019-05-18T20:33:16.725Z,13.46
2019-05-18T20:35:47.654Z,13.35
2019-05-18T20:38:18.021Z,13.36
2019-05-18T20:40:48.682Z,13.40
2019-05-18T20:43:18.984Z,13.36
2019-05-18T20:45:49.767Z,13.39
2019-05-18T20:48:21.164Z,13.28
2019-05-18T20:50:51.471Z,13.41
2019-05-18T20:53:21.832Z,13.34
2019-05-18T20:55:52.180Z,13.27
2019-05-18T20:58:22.526Z,13.35
2019-05-18T21:00:52.634Z,13.38
2019-05-18T21:03:23.472Z,13.36
2019-05-18T21:05:53.627Z,13.39
2019-05-18T21:08:23.978Z,13.43
2019-05-18T21:10:56.707Z,13.49
2019-05-18T21:13:28.957Z,13.46
2019-05-18T21:15:59.283Z,13.42
2019-05-18T21:18:31.982Z,13.32
2019-05-18T21:21:02.492Z,13.39
2019-05-18T21:23:32.785Z,13.32
2019-05-18T21:26:06.312Z,13.36
2019-05-18T21:28:53.424Z,13.48
2019-05-18T21:31:11.669Z,13.35
2019-05-18T21:33:41.997Z,13.36
2019-05-18T21:36:13.480Z,13.42
2019-05-18T21:38:47.664Z,13.46
2019-05-18T21:41:18.078Z,13.51
2019-05-18T21:43:48.364Z,13.53
2019-05-18T21:46:19.036Z,13.61
2019-05-18T21:48:50.056Z,13.57
2019-05-18T21:51:21.945Z,13.65
2019-05-18T21:53:52.313Z,13.61
2019-05-18T21:56:23.485Z,13.67
2019-05-18T21:58:54.017Z,13.76
2019-05-18T22:01:26.898Z,13.77
2019-05-18T22:03:57.605Z,13.84
2019-05-18T22:06:27.889Z,13.93
2019-05-18T22:08:58.530Z,13.94
2019-05-18T22:11:31.371Z,13.87
2019-05-18T22:14:01.893Z,13.85
2019-05-18T22:16:35.089Z,13.99
2019-05-18T22:19:05.874Z,13.98
2019-05-18T22:21:36.236Z,13.90
2019-05-18T22:24:14.447Z,13.86
2019-05-18T22:26:44.903Z,13.90
2019-05-18T22:29:15.250Z,13.83
2019-05-18T22:31:45.362Z,13.76
2019-05-18T22:34:15.724Z,13.70
2019-05-18T22:36:46.458Z,13.56
2019-05-18T22:39:16.742Z,13.56
2019-05-18T22:41:46.914Z,13.51
2019-05-18T22:44:17.650Z,13.39
2019-05-18T22:46:50.751Z,13.38
2019-05-18T22:49:21.079Z,13.42
2019-05-18T22:51:51.387Z,13.43
2019-05-18T22:54:25.004Z,13.36
2019-05-18T22:56:57.499Z,13.33
2019-05-18T22:59:27.879Z,13.27
2019-05-18T23:01:58.204Z,13.24
2019-05-18T23:04:28.601Z,13.24
2019-05-18T23:06:58.976Z,13.26
2019-05-18T23:09:29.273Z,13.27
2019-05-18T23:11:59.886Z,13.28
2019-05-18T23:14:32.416Z,13.26
2019-05-18T23:17:03.553Z,13.24
2019-05-18T23:19:33.862Z,13.18
2019-05-18T23:22:05.804Z,13.14
2019-05-18T23:24:36.094Z,13.08
2019-05-18T23:27:06.397Z,12.96
2019-05-18T23:29:36.703Z,13.10
2019-05-18T23:32:08.696Z,13.02
2019-05-18T23:34:39.003Z,13.05
2019-05-18T23:37:11.527Z,13.09
2019-05-18T23:39:41.942Z,13.02
2019-05-18T23:42:12.657Z,13.14
2019-05-18T23:44:43.941Z,13.17
2019-05-18T23:47:14.587Z,13.17
2019-05-18T23:49:45.079Z,13.01
2019-05-18T23:52:15.709Z,13.04
2019-05-18T23:54:45.966Z,13.03
2019-05-18T23:57:16.329Z,12.96
2019-05-18T23:59:46.793Z,12.97
